createdAt,value
2019-05-30T00:00:18.780Z,5.60
2019-05-30T00:02:48.805Z,4.50
2019-05-30T00:05:18.797Z,4.17
2019-05-30T00:07:48.871Z,4.75
2019-05-30T00:10:18.873Z,3.87
2019-05-30T00:12:50.301Z,4.72
2019-05-30T00:15:20.341Z,5.05
2019-05-30T00:17:50.296Z,3.92
2019-05-30T00:20:20.224Z,3.85
2019-05-30T00:22:50.122Z,4.72
2019-05-30T00:25:20.028Z,4.72
2019-05-30T00:27:51.050Z,5.25
2019-05-30T00:30:24.692Z,4.40
2019-05-30T00:32:53.198Z,5.25
2019-05-30T00:35:23.144Z,3.20
2019-05-30T00:37:53.091Z,3.87
2019-05-30T00:40:23.029Z,3.92
2019-05-30T00:42:52.956Z,4.30
2019-05-30T00:45:22.823Z,4.20
2019-05-30T00:47:52.717Z,4.95
2019-05-30T00:50:22.676Z,4.25
2019-05-30T00:52:52.562Z,4.53
2019-05-30T00:55:23.960Z,3.75
2019-05-30T00:57:54.984Z,3.90
2019-05-30T01:00:42.071Z,5.45
2019-05-30T01:03:00.925Z,4.47
2019-05-30T01:05:30.331Z,5.17
2019-05-30T01:08:00.872Z,3.85
2019-05-30T01:10:30.980Z,4.60
2019-05-30T01:13:01.351Z,4.05
2019-05-30T01:15:31.615Z,4.37
2019-05-30T01:18:03.159Z,4.00
2019-05-30T01:20:33.301Z,3.72
2019-05-30T01:23:03.306Z,3.75
2019-05-30T01:25:33.227Z,4.80
2019-05-30T01:28:05.302Z,5.67
2019-05-30T01:30:34.728Z,4.92
2019-05-30T01:33:05.770Z,4.47
2019-05-30T01:35:35.932Z,4.70
2019-05-30T01:38:06.123Z,4.60
2019-05-30T01:40:36.193Z,4.53
2019-05-30T01:43:06.223Z,5.83
2019-05-30T01:45:36.353Z,5.22
2019-05-30T01:48:08.462Z,3.92
2019-05-30T01:50:39.646Z,4.62
2019-05-30T01:53:09.586Z,5.75
2019-05-30T01:55:39.498Z,4.77
2019-05-30T01:58:09.413Z,5.87
2019-05-30T02:00:40.821Z,5.28
2019-05-30T02:03:10.805Z,7.03
2019-05-30T02:05:40.795Z,6.20
2019-05-30T02:08:10.773Z,4.58
2019-05-30T02:10:40.763Z,4.80
2019-05-30T02:13:11.796Z,4.33
2019-05-30T02:15:41.671Z,4.25
2019-05-30T02:18:11.542Z,4.33
2019-05-30T02:20:41.445Z,4.55
2019-05-30T02:23:11.607Z,4.78
2019-05-30T02:25:44.805Z,4.22
2019-05-30T02:28:15.316Z,4.58
2019-05-30T02:30:45.229Z,6.12
2019-05-30T02:33:15.201Z,6.10
2019-05-30T02:35:45.065Z,3.33
2019-05-30T02:38:14.996Z,6.15
2019-05-30T02:40:44.876Z,5.92
2019-05-30T02:43:15.007Z,4.97
2019-05-30T02:45:45.607Z,4.05
2019-05-30T02:48:15.550Z,5.65
2019-05-30T02:50:45.489Z,6.33
2019-05-30T02:53:15.395Z,4.70
2019-05-30T02:55:45.391Z,6.25
2019-05-30T02:58:17.349Z,4.95
2019-05-30T03:00:46.948Z,4.92
2019-05-30T03:03:16.877Z,4.78
2019-05-30T03:05:46.910Z,4.37
2019-05-30T03:08:16.836Z,5.65
2019-05-30T03:10:46.847Z,6.25
2019-05-30T03:13:16.856Z,5.10
2019-05-30T03:15:46.848Z,6.17
2019-05-30T03:18:18.268Z,5.62
2019-05-30T03:20:48.289Z,6.15
2019-05-30T03:23:20.999Z,4.58
2019-05-30T03:25:50.919Z,5.47
2019-05-30T03:28:20.851Z,5.37
2019-05-30T03:30:50.779Z,5.45
2019-05-30T03:33:37.974Z,5.53
2019-05-30T03:35:53.432Z,6.47
2019-05-30T03:38:23.364Z,5.35
2019-05-30T03:40:53.321Z,7.28
2019-05-30T03:43:23.239Z,7.15
2019-05-30T03:45:53.587Z,4.97
2019-05-30T03:48:26.300Z,6.58
2019-05-30T03:50:59.178Z,6.42
2019-05-30T03:53:29.212Z,6.25
2019-05-30T03:56:02.023Z,6.17
2019-05-30T03:58:42.654Z,5.78
2019-05-30T04:01:15.597Z,7.90
2019-05-30T04:03:54.364Z,7.53
2019-05-30T04:06:27.289Z,6.75
2019-05-30T04:09:00.111Z,6.17
2019-05-30T04:11:35.775Z,7.60
2019-05-30T04:14:09.033Z,8.40
2019-05-30T04:16:39.959Z,7.25
2019-05-30T04:19:10.023Z,8.18
2019-05-30T04:21:40.066Z,7.67
2019-05-30T04:24:11.897Z,6.97
2019-05-30T04:26:41.509Z,6.97
2019-05-30T04:29:12.324Z,7.37
2019-05-30T04:31:43.219Z,7.20
2019-05-30T04:34:14.875Z,5.35
2019-05-30T04:36:45.798Z,6.37
2019-05-30T04:39:17.196Z,6.55
2019-05-30T04:41:47.450Z,7.27
2019-05-30T04:44:18.101Z,8.78
2019-05-30T04:46:48.961Z,9.40
2019-05-30T04:49:21.134Z,6.10
2019-05-30T04:51:50.441Z,6.45
2019-05-30T04:54:21.469Z,9.10
2019-05-30T04:56:51.570Z,7.25
2019-05-30T04:59:21.858Z,6.57
2019-05-30T05:01:52.183Z,6.50
2019-05-30T05:04:22.636Z,8.63
2019-05-30T05:06:53.546Z,5.08
2019-05-30T05:09:23.451Z,7.60
2019-05-30T05:11:54.873Z,6.20
2019-05-30T05:14:24.761Z,7.12
2019-05-30T05:16:54.620Z,6.83
2019-05-30T05:19:26.017Z,8.00
2019-05-30T05:21:58.258Z,5.92
2019-05-30T05:24:28.119Z,5.22
2019-05-30T05:26:58.005Z,7.75
2019-05-30T05:29:27.905Z,6.53
2019-05-30T05:31:58.764Z,6.25
2019-05-30T05:34:28.672Z,5.30
2019-05-30T05:36:58.606Z,8.33
2019-05-30T05:39:28.545Z,5.40
2019-05-30T05:41:58.409Z,5.97
2019-05-30T05:44:35.393Z,5.95
2019-05-30T05:47:05.459Z,5.95
2019-05-30T05:49:35.760Z,5.47
2019-05-30T05:52:05.635Z,6.43
2019-05-30T05:54:35.461Z,6.08
2019-05-30T05:57:08.255Z,4.60
2019-05-30T05:59:38.089Z,7.00
2019-05-30T06:02:08.007Z,5.73
2019-05-30T06:04:37.856Z,4.28
2019-05-30T06:07:09.508Z,4.37
2019-05-30T06:09:39.353Z,4.00
2019-05-30T06:12:09.224Z,4.95
2019-05-30T06:14:39.105Z,3.58
2019-05-30T06:17:08.999Z,3.20
2019-05-30T06:19:46.359Z,5.45
2019-05-30T06:22:10.369Z,3.77
2019-05-30T06:24:40.665Z,2.92
2019-05-30T06:27:10.502Z,3.95
2019-05-30T06:29:40.402Z,2.70
2019-05-30T06:32:10.459Z,3.05
2019-05-30T06:34:41.833Z,3.40
2019-05-30T06:37:12.278Z,3.20
2019-05-30T06:39:42.358Z,3.40
2019-05-30T06:42:12.231Z,3.12
2019-05-30T06:44:42.147Z,3.20
2019-05-30T06:47:12.063Z,3.67
2019-05-30T06:49:41.952Z,3.50
2019-05-30T06:52:13.356Z,2.33
2019-05-30T06:54:43.241Z,3.87
2019-05-30T06:57:16.161Z,3.12
2019-05-30T06:59:46.070Z,3.22
2019-05-30T07:05:14.264Z,4.33
2019-05-30T07:07:50.143Z,2.37
2019-05-30T07:13:51.834Z,3.02
2019-05-30T07:16:40.494Z,2.80
2019-05-30T07:19:25.866Z,4.65
2019-05-30T07:28:03.875Z,3.90
2019-05-30T07:36:02.451Z,4.00
2019-05-30T07:38:32.641Z,3.70
2019-05-30T07:41:02.629Z,4.50
2019-05-30T07:43:33.516Z,5.90
2019-05-30T07:46:03.796Z,3.85
2019-05-30T07:48:36.962Z,5.30
2019-05-30T07:51:06.762Z,8.58
2019-05-30T07:53:36.630Z,17.92
2019-05-30T07:56:06.880Z,6.75
2019-05-30T07:58:49.804Z,7.92
2019-05-30T08:01:35.147Z,7.12
2019-05-30T08:04:18.686Z,6.27
2019-05-30T08:06:59.599Z,5.33
2019-05-30T08:10:16.104Z,6.47
2019-05-30T08:12:27.999Z,4.73
2019-05-30T08:14:57.168Z,3.40
2019-05-30T08:17:25.874Z,3.60
2019-05-30T08:19:57.410Z,4.72
2019-05-30T08:22:27.936Z,4.00
2019-05-30T08:24:59.039Z,5.90
2019-05-30T08:27:30.371Z,3.87
2019-05-30T08:30:01.031Z,4.40
2019-05-30T08:32:30.928Z,4.35
2019-05-30T08:35:00.721Z,4.78
2019-05-30T08:37:31.979Z,3.22
2019-05-30T08:40:02.032Z,3.42
2019-05-30T08:42:31.916Z,4.00
2019-05-30T08:45:03.906Z,4.12
2019-05-30T08:47:34.056Z,4.42
2019-05-30T08:50:06.472Z,2.98
2019-05-30T08:52:36.509Z,3.40
2019-05-30T08:55:08.847Z,3.80
2019-05-30T08:57:41.006Z,4.03
2019-05-30T09:00:13.139Z,2.53
2019-05-30T09:02:43.012Z,2.15
2019-05-30T09:05:12.863Z,4.22
2019-05-30T09:07:43.019Z,7.42
2019-05-30T09:10:14.685Z,2.70
2019-05-30T09:12:48.743Z,3.92
2019-05-30T09:15:22.078Z,3.80
2019-05-30T09:17:53.675Z,3.52
2019-05-30T09:20:23.479Z,1.70
2019-05-30T09:22:53.289Z,3.33
2019-05-30T09:25:24.805Z,2.75
2019-05-30T09:27:54.589Z,2.83
2019-05-30T09:30:27.604Z,2.50
2019-05-30T09:32:57.457Z,2.23
2019-05-30T09:35:33.998Z,3.15
2019-05-30T09:38:03.939Z,1.77
2019-05-30T09:43:27.619Z,3.20
2019-05-30T09:45:58.350Z,1.35
2019-05-30T09:48:28.272Z,1.60
2019-05-30T09:50:58.131Z,1.87
2019-05-30T09:53:28.008Z,2.55
2019-05-30T09:56:03.082Z,1.50
2019-05-30T09:59:00.979Z,1.87
2019-05-30T10:01:10.469Z,1.60
2019-05-30T10:03:43.625Z,1.72
2019-05-30T10:06:28.523Z,1.22
2019-05-30T10:08:50.005Z,2.75
2019-05-30T10:11:21.044Z,1.70
2019-05-30T10:13:55.324Z,1.10
2019-05-30T10:16:25.174Z,0.93
2019-05-30T10:18:57.042Z,1.40
2019-05-30T10:21:28.920Z,1.60
2019-05-30T10:23:58.827Z,1.55
2019-05-30T10:26:36.474Z,1.62
2019-05-30T10:29:05.139Z,1.70
2019-05-30T10:31:35.042Z,1.20
2019-05-30T10:34:05.245Z,2.17
2019-05-30T10:36:43.910Z,2.00
2019-05-30T10:39:08.546Z,1.82
2019-05-30T10:41:38.471Z,2.02
2019-05-30T10:44:08.259Z,2.73
2019-05-30T10:46:38.143Z,1.20
2019-05-30T10:49:08.048Z,3.00
2019-05-30T10:51:38.978Z,1.75
2019-05-30T10:54:10.368Z,1.35
2019-05-30T10:56:43.189Z,1.85
2019-05-30T10:59:14.513Z,1.77
2019-05-30T11:01:48.526Z,1.92
2019-05-30T11:04:27.797Z,2.35
2019-05-30T11:07:11.411Z,1.52
2019-05-30T11:09:44.925Z,2.62
2019-05-30T11:12:18.085Z,1.20
2019-05-30T11:15:03.115Z,2.83
2019-05-30T11:17:26.351Z,2.52
2019-05-30T11:19:58.526Z,2.60
2019-05-30T11:22:29.056Z,1.10
2019-05-30T11:25:04.945Z,1.32
2019-05-30T11:30:36.545Z,1.60
2019-05-30T11:33:08.726Z,1.35
2019-05-30T11:35:43.244Z,1.87
2019-05-30T11:38:13.206Z,2.02
2019-05-30T11:40:43.102Z,1.40
2019-05-30T11:43:15.081Z,1.45
2019-05-30T11:45:59.859Z,2.50
2019-05-30T11:48:28.414Z,2.03
2019-05-30T11:51:01.256Z,3.50
2019-05-30T11:53:31.156Z,3.60
2019-05-30T11:56:01.851Z,2.42
2019-05-30T11:58:31.687Z,3.13
2019-05-30T12:01:01.537Z,1.77
2019-05-30T12:03:31.466Z,3.77
2019-05-30T12:06:01.451Z,3.27
2019-05-30T12:08:31.315Z,2.72
2019-05-30T12:11:01.496Z,2.17
2019-05-30T12:13:31.389Z,3.75
2019-05-30T12:16:01.827Z,2.33
2019-05-30T12:18:31.825Z,3.77
2019-05-30T12:21:01.966Z,2.80
2019-05-30T12:23:32.013Z,2.15
2019-05-30T12:26:02.248Z,3.40
2019-05-30T12:28:33.456Z,2.37
2019-05-30T12:31:06.056Z,3.47
2019-05-30T12:33:34.632Z,3.40
2019-05-30T12:36:05.081Z,2.50
2019-05-30T12:38:34.855Z,2.95
2019-05-30T12:41:04.898Z,2.90
2019-05-30T12:43:34.768Z,3.33
2019-05-30T12:46:04.842Z,5.33
2019-05-30T12:48:34.677Z,2.30
2019-05-30T12:51:05.560Z,3.00
2019-05-30T12:53:35.459Z,2.42
2019-05-30T12:56:06.791Z,3.10
2019-05-30T12:58:37.738Z,3.87
2019-05-30T13:01:07.539Z,2.20
2019-05-30T13:03:37.330Z,5.03
2019-05-30T13:06:07.918Z,4.30
2019-05-30T13:08:37.754Z,2.55
2019-05-30T13:11:07.611Z,2.67
2019-05-30T13:13:37.439Z,3.22
2019-05-30T13:16:08.913Z,2.42
2019-05-30T13:18:38.677Z,2.80
2019-05-30T13:21:09.328Z,5.72
2019-05-30T13:23:39.193Z,4.15
2019-05-30T13:26:10.459Z,3.83
2019-05-30T13:28:40.322Z,4.70
2019-05-30T13:31:11.105Z,4.33
2019-05-30T13:33:40.894Z,5.45
2019-05-30T13:36:10.639Z,4.27
2019-05-30T13:38:40.491Z,3.50
2019-05-30T13:41:10.204Z,3.33
2019-05-30T13:43:40.047Z,5.17
2019-05-30T13:46:09.841Z,3.52
2019-05-30T13:48:40.474Z,3.27
2019-05-30T13:51:10.333Z,4.17
2019-05-30T13:53:40.131Z,4.45
2019-05-30T13:56:09.939Z,3.58
2019-05-30T13:58:40.825Z,4.03
2019-05-30T14:01:13.839Z,4.33
2019-05-30T14:03:42.068Z,4.10
2019-05-30T14:06:15.078Z,3.22
2019-05-30T14:08:44.843Z,4.67
2019-05-30T14:11:14.697Z,4.50
2019-05-30T14:13:44.553Z,5.05
2019-05-30T14:16:14.421Z,4.12
2019-05-30T14:18:44.248Z,3.90
2019-05-30T14:21:14.057Z,3.87
2019-05-30T14:23:43.853Z,3.72
2019-05-30T14:26:14.297Z,3.08
2019-05-30T14:28:44.075Z,3.62
2019-05-30T14:31:13.864Z,2.87
2019-05-30T14:33:43.715Z,3.90
2019-05-30T14:36:14.740Z,4.57
2019-05-30T14:38:57.957Z,4.03
2019-05-30T14:41:16.259Z,3.20
2019-05-30T14:43:46.027Z,4.42
2019-05-30T14:46:16.696Z,3.60
2019-05-30T14:48:50.078Z,5.08
2019-05-30T14:51:19.881Z,3.25
2019-05-30T14:53:49.694Z,3.58
2019-05-30T14:56:19.516Z,5.05
2019-05-30T14:58:49.289Z,3.57
2019-05-30T15:01:19.059Z,4.10
2019-05-30T15:03:48.905Z,2.70
2019-05-30T15:06:18.648Z,4.28
2019-05-30T15:08:48.451Z,3.20
2019-05-30T15:11:18.313Z,3.72
2019-05-30T15:13:48.101Z,2.62
2019-05-30T15:16:17.810Z,3.62
2019-05-30T15:18:48.687Z,3.73
2019-05-30T15:21:18.469Z,3.40
2019-05-30T15:23:48.231Z,3.27
2019-05-30T15:26:19.009Z,3.20
2019-05-30T15:28:48.799Z,3.02
2019-05-30T15:31:18.607Z,3.30
2019-05-30T15:33:48.318Z,3.33
2019-05-30T15:36:18.034Z,4.30
2019-05-30T15:38:48.211Z,4.55
2019-05-30T15:41:17.988Z,2.47
2019-05-30T15:43:49.370Z,2.95
2019-05-30T15:46:31.377Z,3.62
2019-05-30T15:49:02.831Z,4.03
2019-05-30T15:51:32.571Z,3.77
2019-05-30T15:54:02.416Z,3.27
2019-05-30T15:56:32.215Z,3.90
2019-05-30T15:59:02.014Z,4.67
2019-05-30T16:01:31.793Z,3.17
2019-05-30T16:04:01.631Z,3.35
2019-05-30T16:06:31.503Z,3.42
2019-05-30T16:09:01.353Z,3.47
2019-05-30T16:11:31.436Z,4.12
2019-05-30T16:14:01.863Z,2.83
2019-05-30T16:16:39.672Z,2.85
2019-05-30T16:19:16.248Z,2.65
2019-05-30T16:21:34.595Z,3.77
2019-05-30T16:24:04.743Z,3.90
2019-05-30T16:26:34.603Z,4.20
2019-05-30T16:29:04.484Z,4.30
2019-05-30T16:31:34.362Z,1.90
2019-05-30T16:34:04.158Z,2.93
2019-05-30T16:36:33.944Z,2.12
2019-05-30T16:39:04.481Z,2.60
2019-05-30T16:41:34.419Z,2.75
2019-05-30T16:44:04.757Z,2.12
2019-05-30T16:46:34.605Z,5.03
2019-05-30T16:49:04.450Z,3.00
2019-05-30T16:51:34.285Z,2.40
2019-05-30T16:54:04.098Z,3.33
2019-05-30T16:56:34.219Z,3.60
2019-05-30T16:59:03.956Z,2.50
2019-05-30T17:01:34.392Z,3.35
2019-05-30T17:04:04.179Z,3.98
2019-05-30T17:06:33.980Z,2.27
2019-05-30T17:09:04.629Z,2.72
2019-05-30T17:11:34.548Z,2.22
2019-05-30T17:14:04.508Z,2.47
2019-05-30T17:16:34.379Z,2.65
2019-05-30T17:19:04.225Z,2.92
2019-05-30T17:21:34.084Z,3.27
2019-05-30T17:24:03.931Z,2.52
2019-05-30T17:26:33.772Z,2.10
2019-05-30T17:29:03.628Z,4.22
2019-05-30T17:31:33.463Z,4.08
2019-05-30T17:34:03.243Z,3.58
2019-05-30T17:36:33.036Z,3.15
2019-05-30T17:39:02.884Z,2.87
2019-05-30T17:41:33.140Z,3.60
2019-05-30T17:44:02.994Z,2.40
2019-05-30T17:46:32.781Z,2.98
2019-05-30T17:49:02.638Z,2.15
2019-05-30T17:51:32.487Z,2.35
2019-05-30T17:54:02.347Z,2.45
2019-05-30T17:56:32.844Z,2.45
2019-05-30T17:59:02.682Z,2.87
2019-05-30T18:01:32.539Z,3.10
2019-05-30T18:04:02.312Z,3.77
2019-05-30T18:06:32.163Z,2.23
2019-05-30T18:09:02.052Z,1.20
2019-05-30T18:11:33.355Z,3.67
2019-05-30T18:14:03.195Z,1.85
2019-05-30T18:16:33.160Z,1.90
2019-05-30T18:19:02.938Z,2.60
2019-05-30T18:21:32.803Z,3.25
2019-05-30T18:24:02.679Z,3.22
2019-05-30T18:26:32.520Z,1.60
2019-05-30T18:29:02.380Z,2.27
2019-05-30T18:31:32.405Z,4.62
2019-05-30T18:34:02.247Z,2.90
2019-05-30T18:36:33.004Z,3.08
2019-05-30T18:39:02.797Z,3.15
2019-05-30T18:41:33.762Z,3.30
2019-05-30T18:44:03.710Z,2.92
2019-05-30T18:46:33.563Z,3.08
2019-05-30T18:49:04.354Z,4.65
2019-05-30T18:51:34.152Z,2.90
2019-05-30T18:54:03.929Z,4.37
2019-05-30T18:56:35.348Z,3.05
2019-05-30T18:59:05.206Z,3.30
2019-05-30T19:01:34.988Z,3.27
2019-05-30T19:04:05.155Z,3.03
2019-05-30T19:06:36.269Z,2.73
2019-05-30T19:09:07.777Z,3.58
2019-05-30T19:11:38.337Z,2.02
2019-05-30T19:14:08.323Z,2.22
2019-05-30T19:16:38.163Z,5.60
2019-05-30T19:19:08.004Z,2.10
2019-05-30T19:21:37.853Z,3.92
2019-05-30T19:24:07.635Z,5.42
2019-05-30T19:26:37.428Z,3.67
2019-05-30T19:29:07.238Z,3.95
2019-05-30T19:31:38.008Z,3.58
2019-05-30T19:34:07.794Z,3.47
2019-05-30T19:36:37.640Z,3.87
2019-05-30T19:39:08.422Z,4.42
2019-05-30T19:41:52.629Z,5.05
2019-05-30T19:44:09.731Z,3.70
2019-05-30T19:46:39.459Z,3.47
2019-05-30T19:49:09.152Z,3.50
2019-05-30T19:51:39.221Z,2.98
2019-05-30T19:54:09.119Z,3.83
2019-05-30T19:56:41.629Z,2.85
2019-05-30T19:59:10.315Z,3.37
2019-05-30T20:01:40.174Z,3.15
2019-05-30T20:04:09.952Z,2.70
2019-05-30T20:06:40.795Z,4.03
2019-05-30T20:09:10.719Z,3.62
2019-05-30T20:11:41.524Z,4.10
2019-05-30T20:14:11.514Z,5.17
2019-05-30T20:16:42.014Z,6.05
2019-05-30T20:19:11.934Z,4.87
2019-05-30T20:21:42.026Z,4.87
2019-05-30T20:24:13.021Z,3.45
2019-05-30T20:26:42.907Z,4.55
2019-05-30T20:29:12.904Z,7.47
2019-05-30T20:31:43.634Z,4.87
2019-05-30T20:34:13.575Z,5.45
2019-05-30T20:36:43.369Z,6.03
2019-05-30T20:39:13.168Z,5.00
2019-05-30T20:41:43.253Z,6.50
2019-05-30T20:44:13.131Z,6.35
2019-05-30T20:46:43.285Z,5.30
2019-05-30T20:49:13.171Z,7.60
2019-05-30T20:51:43.425Z,6.05
2019-05-30T20:54:14.356Z,6.55
2019-05-30T20:56:48.031Z,5.85
2019-05-30T20:59:15.502Z,8.23
2019-05-30T21:01:45.978Z,6.85
2019-05-30T21:04:15.937Z,6.28
2019-05-30T21:06:47.175Z,6.57
2019-05-30T21:09:30.433Z,7.27
2019-05-30T21:11:50.347Z,8.38
2019-05-30T21:14:27.193Z,4.83
2019-05-30T21:16:55.148Z,9.10
2019-05-30T21:19:24.940Z,6.62
2019-05-30T21:21:54.714Z,6.40
2019-05-30T21:24:24.574Z,6.60
2019-05-30T21:26:54.985Z,5.60
2019-05-30T21:29:24.861Z,8.18
2019-05-30T21:31:54.717Z,5.67
2019-05-30T21:34:24.483Z,6.83
2019-05-30T21:36:54.263Z,7.13
2019-05-30T21:39:24.031Z,8.28
2019-05-30T21:41:53.762Z,6.75
2019-05-30T21:44:23.535Z,7.07
2019-05-30T21:46:53.336Z,8.50
2019-05-30T21:49:23.117Z,6.33
2019-05-30T21:51:53.183Z,7.78
2019-05-30T21:54:22.969Z,7.93
2019-05-30T21:56:52.839Z,6.80
2019-05-30T21:59:22.631Z,6.67
2019-05-30T22:01:57.044Z,8.35
2019-05-30T22:04:23.743Z,6.50
2019-05-30T22:06:53.614Z,6.22
2019-05-30T22:09:23.401Z,8.03
2019-05-30T22:11:53.264Z,6.42
2019-05-30T22:14:23.132Z,8.73
2019-05-30T22:16:52.976Z,8.35
2019-05-30T22:19:22.748Z,7.43
2019-05-30T22:21:52.637Z,5.22
2019-05-30T22:24:22.363Z,7.42
2019-05-30T22:26:52.659Z,6.03
2019-05-30T22:29:22.622Z,7.42
2019-05-30T22:31:53.509Z,7.97
2019-05-30T22:34:23.505Z,8.68
2019-05-30T22:36:53.276Z,8.00
2019-05-30T22:39:23.050Z,7.62
2019-05-30T22:41:52.822Z,5.97
2019-05-30T22:44:22.676Z,5.87
2019-05-30T22:46:52.438Z,7.20
2019-05-30T22:49:22.233Z,6.30
2019-05-30T22:51:53.074Z,6.08
2019-05-30T22:54:23.028Z,7.63
2019-05-30T22:56:53.596Z,7.42
2019-05-30T22:59:23.483Z,5.65
2019-05-30T23:01:53.729Z,10.00
2019-05-30T23:04:23.568Z,7.57
2019-05-30T23:06:54.442Z,6.65
2019-05-30T23:09:24.433Z,9.10
2019-05-30T23:11:54.130Z,8.18
2019-05-30T23:14:33.398Z,6.80
2019-05-30T23:17:05.735Z,7.20
2019-05-30T23:19:38.579Z,6.78
2019-05-30T23:22:08.367Z,8.68
2019-05-30T23:24:38.082Z,6.15
2019-05-30T23:27:08.404Z,6.40
2019-05-30T23:29:38.351Z,6.87
2019-05-30T23:32:08.195Z,6.20
2019-05-30T23:34:37.970Z,6.87
2019-05-30T23:37:07.736Z,6.75
2019-05-30T23:39:37.512Z,5.65
2019-05-30T23:42:07.178Z,7.37
2019-05-30T23:44:36.949Z,6.55
2019-05-30T23:47:06.659Z,6.60
2019-05-30T23:49:36.517Z,6.47
2019-05-30T23:52:06.233Z,13.48
2019-05-30T23:54:36.076Z,7.35
2019-05-30T23:57:05.810Z,7.92
2019-05-30T23:59:35.506Z,7.37
